KDOV Airport (Dover Afb) Information

FAA: DOV - ICAO: KDOV

KDOV Airport Location

State Delaware
County Kent
City Dover
KDOV Airport is 3 miles east of Dover, DE.
Latitude 39-07-46.3400N
Longitude 075-27-57.4600W
Elevation 28ft

KDOV Airport METARs

METAR KDOV 251456Z AUTO 20014KT 10SM CLR 22/17 A2994 RMK AO2 SLP142 T02240166 58013 $
Altimeter 29.94"
Temperature 22.4°C (72.3°F)
Wind 200° at 14KT
Clouds Skies are clear.
Visibility 10.0mi
Time observed: 2021-10-25T14:56:00Z

KDOV Airport Details

Status Operational
Activation N/A
Ownership Military - Air Force
Usage Public
Chart WASHINGTON
ATC on-site Yes
Beacon schedule sunset-sunrise
Beacon color clear green

KDOV Airport Contacts

Owner USAF
Owner address DOVER AFB, DOVER, DE 19901
Owner phone N/A
Manager GENE H. HUEY
Manager address 17149 OAK RD., BRIDGEVILLE, DE 19933
Manager phone 302-604-0494

KDOV Airport (Dover Afb) Radio Frequencies

KDOV (Airport) Radio Frequencies

UNICOM N/A
Common traffic advisory frequency (CTAF) N/A